createdAt,value
2019-02-12T00:00:11.662Z,4.50
2019-02-12T00:03:00.196Z,4.40
2019-02-12T00:05:49.897Z,4.40
2019-02-12T00:08:38.788Z,4.40
2019-02-12T00:11:27.953Z,4.50
2019-02-12T00:14:17.417Z,4.40
2019-02-12T00:17:06.723Z,4.40
2019-02-12T00:19:55.962Z,4.40
2019-02-12T00:22:45.433Z,4.40
2019-02-12T00:25:34.665Z,4.40
2019-02-12T00:28:23.423Z,4.40
2019-02-12T00:31:12.410Z,4.40
2019-02-12T00:34:01.836Z,4.30
2019-02-12T00:36:50.995Z,4.30
2019-02-12T00:39:39.661Z,4.30
2019-02-12T00:42:28.837Z,4.20
2019-02-12T00:45:18.308Z,4.30
2019-02-12T00:48:07.478Z,4.20
2019-02-12T00:50:56.666Z,4.20
2019-02-12T00:53:45.673Z,4.20
2019-02-12T00:56:34.709Z,4.20
2019-02-12T00:59:23.544Z,4.10
2019-02-12T01:02:12.337Z,4.10
2019-02-12T01:05:01.422Z,4.10
2019-02-12T01:07:50.337Z,4.10
2019-02-12T01:10:39.243Z,4.20
2019-02-12T01:13:28.202Z,4.30
2019-02-12T01:16:17.387Z,4.30
2019-02-12T01:19:06.839Z,4.30
2019-02-12T01:21:56.463Z,4.30
2019-02-12T01:24:46.093Z,4.30
2019-02-12T01:27:35.398Z,4.20
2019-02-12T01:30:24.575Z,4.10
2019-02-12T01:33:14.109Z,4.10
2019-02-12T01:36:02.998Z,4.10
2019-02-12T01:38:52.175Z,4.10
2019-02-12T01:41:40.955Z,4.10
2019-02-12T01:44:30.013Z,4.00
2019-02-12T01:47:19.623Z,4.00
2019-02-12T01:50:09.850Z,4.00
2019-02-12T01:52:59.032Z,4.00
2019-02-12T01:55:48.087Z,3.90
2019-02-12T01:58:36.981Z,3.90
2019-02-12T02:01:26.352Z,3.90
2019-02-12T02:04:15.268Z,3.90
2019-02-12T02:07:04.115Z,3.90
2019-02-12T02:09:53.321Z,3.80
2019-02-12T02:12:42.760Z,3.80
2019-02-12T02:15:31.848Z,3.80
2019-02-12T02:18:21.133Z,3.80
2019-02-12T02:21:10.535Z,3.80
2019-02-12T02:24:00.030Z,3.80
2019-02-12T02:26:49.189Z,3.80
2019-02-12T02:29:19.689Z,3.70
2019-02-12T02:32:08.355Z,3.70
2019-02-12T02:34:57.861Z,3.80
2019-02-12T02:37:47.024Z,3.80
2019-02-12T02:40:36.674Z,3.70
2019-02-12T02:43:25.400Z,3.80
2019-02-12T02:46:14.763Z,3.70
2019-02-12T02:49:03.876Z,3.80
2019-02-12T02:51:54.160Z,3.70
2019-02-12T02:54:43.682Z,3.70
2019-02-12T02:57:32.894Z,3.70
2019-02-12T03:00:21.614Z,3.70
2019-02-12T03:03:10.941Z,3.70
2019-02-12T03:05:59.988Z,3.60
2019-02-12T03:08:48.982Z,3.60
2019-02-12T03:11:38.544Z,3.60
2019-02-12T03:14:27.518Z,3.50
2019-02-12T03:17:16.390Z,3.60
2019-02-12T03:20:05.231Z,3.70
2019-02-12T03:22:54.071Z,3.70
2019-02-12T03:25:42.849Z,3.80
2019-02-12T03:28:31.721Z,3.90
2019-02-12T03:31:20.882Z,4.00
2019-02-12T03:34:10.121Z,4.00
2019-02-12T03:36:59.309Z,4.10
2019-02-12T03:39:48.913Z,4.10
2019-02-12T03:42:37.675Z,4.20
2019-02-12T03:45:27.448Z,4.20
2019-02-12T03:48:16.715Z,4.20
2019-02-12T03:51:06.465Z,4.10
2019-02-12T03:53:55.745Z,4.00
2019-02-12T03:56:44.693Z,3.90
2019-02-12T03:59:33.660Z,3.90
2019-02-12T04:02:22.454Z,3.90
2019-02-12T04:05:11.096Z,3.80
2019-02-12T04:08:00.329Z,3.80
2019-02-12T04:10:49.899Z,3.70
2019-02-12T04:13:38.797Z,3.70
2019-02-12T04:16:27.478Z,3.70
2019-02-12T04:19:16.376Z,3.60
2019-02-12T04:22:06.036Z,3.60
2019-02-12T04:24:54.993Z,3.60
2019-02-12T04:27:44.345Z,3.60
2019-02-12T04:30:33.513Z,3.50
2019-02-12T04:33:23.057Z,3.50
2019-02-12T04:35:53.205Z,3.50
2019-02-12T04:38:42.501Z,3.50
2019-02-12T04:41:32.038Z,3.50
2019-02-12T04:44:20.930Z,3.50
2019-02-12T04:47:10.415Z,3.50
2019-02-12T04:49:59.957Z,3.50
2019-02-12T04:52:49.044Z,3.50
2019-02-12T04:55:37.987Z,3.40
2019-02-12T04:58:27.327Z,3.40
2019-02-12T05:01:15.880Z,3.40
2019-02-12T05:04:05.419Z,3.40
2019-02-12T05:06:54.406Z,3.40
2019-02-12T05:09:44.977Z,3.40
2019-02-12T05:12:17.796Z,3.40
2019-02-12T05:15:08.594Z,3.40
2019-02-12T05:17:57.917Z,3.40
2019-02-12T05:20:46.724Z,3.40
2019-02-12T05:23:36.184Z,3.40
2019-02-12T05:26:25.078Z,3.40
2019-02-12T05:29:14.126Z,3.40
2019-02-12T05:32:02.643Z,3.40
2019-02-12T05:34:52.040Z,3.30
2019-02-12T05:37:41.236Z,3.40
2019-02-12T05:40:30.286Z,3.40
2019-02-12T05:43:19.487Z,3.30
2019-02-12T05:46:08.375Z,3.30
2019-02-12T05:48:58.039Z,3.30
2019-02-12T05:51:46.809Z,3.30
2019-02-12T05:54:36.072Z,3.30
2019-02-12T05:57:25.096Z,3.30
2019-02-12T06:00:17.029Z,3.30
2019-02-12T06:03:06.278Z,3.30
2019-02-12T06:05:55.389Z,3.30
2019-02-12T06:08:44.104Z,3.30
2019-02-12T06:11:33.640Z,3.30
2019-02-12T06:14:23.282Z,3.20
2019-02-12T06:17:13.502Z,3.30
2019-02-12T06:20:02.516Z,3.20
2019-02-12T06:22:51.128Z,3.20
2019-02-12T06:25:40.471Z,3.20
2019-02-12T06:28:29.825Z,3.20
2019-02-12T06:31:19.051Z,3.20
2019-02-12T06:34:08.336Z,3.20
2019-02-12T06:36:57.551Z,3.20
2019-02-12T06:39:46.895Z,3.10
2019-02-12T06:42:36.561Z,3.20
2019-02-12T06:45:25.299Z,3.20
2019-02-12T06:48:14.901Z,3.20
2019-02-12T06:51:04.367Z,3.20
2019-02-12T06:53:53.862Z,3.30
2019-02-12T06:56:42.821Z,3.20
2019-02-12T06:59:31.774Z,3.30
2019-02-12T07:02:57.125Z,3.30
2019-02-12T07:06:02.671Z,3.30
2019-02-12T07:09:18.326Z,3.30
2019-02-12T07:13:03.729Z,3.40
2019-02-12T07:15:58.357Z,3.40
2019-02-12T07:18:59.025Z,3.40
2019-02-12T07:22:27.885Z,3.50
2019-02-12T07:25:40.481Z,3.50
2019-02-12T07:29:28.791Z,3.50
2019-02-12T07:33:01.849Z,3.60
2019-02-12T07:36:31.831Z,3.70
2019-02-12T07:40:01.292Z,3.80
2019-02-12T07:43:29.510Z,3.90
2019-02-12T07:46:44.331Z,3.90
2019-02-12T07:49:58.185Z,4.00
2019-02-12T07:53:11.658Z,4.00
2019-02-12T07:56:56.611Z,4.00
2019-02-12T08:00:14.115Z,4.10
2019-02-12T08:03:50.230Z,4.10
2019-02-12T08:07:25.501Z,4.20
2019-02-12T08:10:50.499Z,4.20
2019-02-12T08:14:28.712Z,4.30
2019-02-12T08:17:39.868Z,4.30
2019-02-12T08:21:25.598Z,4.40
2019-02-12T08:24:54.691Z,4.50
2019-02-12T08:28:18.871Z,4.60
2019-02-12T08:31:13.522Z,4.60
2019-02-12T08:34:29.463Z,4.70
2019-02-12T08:37:42.241Z,4.60
2019-02-12T08:40:58.637Z,4.70
2019-02-12T08:44:04.016Z,4.70
2019-02-12T08:47:43.242Z,4.80
2019-02-12T08:50:46.306Z,4.90
2019-02-12T08:54:19.438Z,5.00
2019-02-12T08:57:45.066Z,5.10
2019-02-12T09:01:08.229Z,5.30
2019-02-12T09:04:33.783Z,5.30
2019-02-12T09:08:22.358Z,5.50
2019-02-12T09:11:42.563Z,5.50
2019-02-12T09:14:49.721Z,5.60
2019-02-12T09:18:16.173Z,5.60
2019-02-12T09:22:07.435Z,5.70
2019-02-12T09:25:07.785Z,5.70
2019-02-12T09:28:18.547Z,5.70
2019-02-12T09:32:04.294Z,5.60
2019-02-12T09:35:32.473Z,5.60
2019-02-12T09:38:46.050Z,5.60
2019-02-12T09:42:12.047Z,5.70
2019-02-12T09:45:31.938Z,5.80
2019-02-12T09:48:39.167Z,5.90
2019-02-12T09:52:10.032Z,6.00
2019-02-12T09:55:14.197Z,6.00
2019-02-12T09:58:18.464Z,6.00
2019-02-12T10:01:20.202Z,6.00
2019-02-12T10:04:25.186Z,5.90
2019-02-12T10:07:28.738Z,6.00
2019-02-12T10:10:52.935Z,6.10
2019-02-12T10:13:55.183Z,6.20
2019-02-12T10:17:08.847Z,6.20
2019-02-12T10:20:35.566Z,6.30
2019-02-12T10:24:04.641Z,6.30
2019-02-12T10:27:33.249Z,6.30
2019-02-12T10:30:46.463Z,6.40
2019-02-12T10:33:35.226Z,6.40
2019-02-12T10:36:24.134Z,6.50
2019-02-12T10:39:14.776Z,6.50
2019-02-12T10:42:03.650Z,6.60
2019-02-12T10:44:52.456Z,6.70
2019-02-12T10:47:41.475Z,6.80
2019-02-12T10:50:31.290Z,6.80
2019-02-12T10:53:20.249Z,6.80
2019-02-12T10:56:08.949Z,6.80
2019-02-12T10:58:58.236Z,6.80
2019-02-12T11:01:47.373Z,6.90
2019-02-12T11:04:36.733Z,7.00
2019-02-12T11:07:26.017Z,7.00
2019-02-12T11:10:15.525Z,7.10
2019-02-12T11:13:04.200Z,7.00
2019-02-12T11:15:53.255Z,7.00
2019-02-12T11:18:42.769Z,7.10
2019-02-12T11:21:31.272Z,7.20
2019-02-12T11:24:20.533Z,7.30
2019-02-12T11:27:09.701Z,7.30
2019-02-12T11:29:58.806Z,7.30
2019-02-12T11:32:48.143Z,7.40
2019-02-12T11:35:37.312Z,7.30
2019-02-12T11:38:26.938Z,7.30
2019-02-12T11:41:16.186Z,7.30
2019-02-12T11:44:05.574Z,7.40
2019-02-12T11:46:54.420Z,7.30
2019-02-12T11:49:43.263Z,7.40
2019-02-12T11:52:32.271Z,7.40
2019-02-12T11:55:20.639Z,7.50
2019-02-12T11:58:09.676Z,7.40
2019-02-12T12:01:01.022Z,7.50
2019-02-12T12:03:49.857Z,7.40
2019-02-12T12:06:38.802Z,7.50
2019-02-12T12:09:28.013Z,7.60
2019-02-12T12:12:17.229Z,7.70
2019-02-12T12:15:07.281Z,7.70
2019-02-12T12:17:56.021Z,7.70
2019-02-12T12:20:44.803Z,7.70
2019-02-12T12:23:33.659Z,7.60
2019-02-12T12:26:22.583Z,7.60
2019-02-12T12:29:11.886Z,7.60
2019-02-12T12:32:01.088Z,7.70
2019-02-12T12:34:50.078Z,7.70
2019-02-12T12:37:38.787Z,7.70
2019-02-12T12:40:27.673Z,7.70
2019-02-12T12:43:16.324Z,7.70
2019-02-12T12:46:05.854Z,7.70
2019-02-12T12:48:55.437Z,7.80
2019-02-12T12:51:45.049Z,7.90
2019-02-12T12:54:34.057Z,8.00
2019-02-12T12:57:23.319Z,7.90
2019-02-12T13:00:12.710Z,7.90
2019-02-12T13:03:01.895Z,7.70
2019-02-12T13:05:51.050Z,7.70
2019-02-12T13:08:40.378Z,7.70
2019-02-12T13:11:29.952Z,8.00
2019-02-12T13:14:19.378Z,8.20
2019-02-12T13:17:08.617Z,8.40
2019-02-12T13:19:57.675Z,8.50
2019-02-12T13:22:47.129Z,8.60
2019-02-12T13:25:36.346Z,8.70
2019-02-12T13:28:25.711Z,8.60
2019-02-12T13:31:14.560Z,8.60
2019-02-12T13:34:04.360Z,8.60
2019-02-12T13:36:53.376Z,8.60
2019-02-12T13:39:42.493Z,8.70
2019-02-12T13:42:31.673Z,8.60
2019-02-12T13:45:20.391Z,8.70
2019-02-12T13:48:09.650Z,8.70
2019-02-12T13:50:59.558Z,8.70
2019-02-12T13:53:48.568Z,8.80
2019-02-12T13:56:38.486Z,8.70
2019-02-12T13:59:28.405Z,8.70
2019-02-12T14:02:18.092Z,8.80
2019-02-12T14:05:10.033Z,8.80
2019-02-12T14:07:59.286Z,8.90
2019-02-12T14:10:48.789Z,8.90
2019-02-12T14:13:37.624Z,8.90
2019-02-12T14:16:27.027Z,9.00
2019-02-12T14:19:15.774Z,9.00
2019-02-12T14:22:05.216Z,9.00
2019-02-12T14:24:54.454Z,9.00
2019-02-12T14:27:43.518Z,8.80
2019-02-12T14:30:32.101Z,8.70
2019-02-12T14:33:20.942Z,8.70
2019-02-12T14:36:10.213Z,8.60
2019-02-12T14:38:59.664Z,8.60
2019-02-12T14:41:49.248Z,8.40
2019-02-12T14:44:40.639Z,8.40
2019-02-12T14:47:30.045Z,8.30
2019-02-12T14:50:19.163Z,8.30
2019-02-12T14:53:08.261Z,8.30
2019-02-12T14:55:57.347Z,8.20
2019-02-12T14:58:46.185Z,8.20
2019-02-12T15:01:35.191Z,8.20
2019-02-12T15:04:24.249Z,8.20
2019-02-12T15:07:13.381Z,8.20
2019-02-12T15:10:02.231Z,8.20
2019-02-12T15:12:53.129Z,8.30
2019-02-12T15:15:42.271Z,8.30
2019-02-12T15:18:31.112Z,8.30
2019-02-12T15:21:22.731Z,8.30
2019-02-12T15:24:12.431Z,8.30
2019-02-12T15:26:42.398Z,8.20
2019-02-12T15:29:12.502Z,8.20
2019-02-12T15:32:00.858Z,8.20
2019-02-12T15:34:49.533Z,8.10
2019-02-12T15:37:38.804Z,8.10
2019-02-12T15:40:28.746Z,8.10
2019-02-12T15:43:02.818Z,8.00
2019-02-12T15:45:33.131Z,8.00
2019-02-12T15:48:03.970Z,8.00
2019-02-12T15:50:34.513Z,8.00
2019-02-12T15:53:04.676Z,8.00
2019-02-12T15:55:42.123Z,8.00
2019-02-12T15:58:08.001Z,7.90
2019-02-12T16:00:39.489Z,7.90
2019-02-12T16:03:10.244Z,7.90
2019-02-12T16:05:41.406Z,7.90
2019-02-12T16:08:11.540Z,7.80
2019-02-12T16:11:01.479Z,7.70
2019-02-12T16:13:50.604Z,7.70
2019-02-12T16:16:39.952Z,7.70
2019-02-12T16:19:29.973Z,7.60
2019-02-12T16:22:19.813Z,7.60
2019-02-12T16:25:09.907Z,7.60
2019-02-12T16:27:59.097Z,7.50
2019-02-12T16:30:48.226Z,7.40
2019-02-12T16:33:37.924Z,7.40
2019-02-12T16:36:28.137Z,7.40
2019-02-12T16:39:17.212Z,7.40
2019-02-12T16:42:06.072Z,7.30
2019-02-12T16:44:55.799Z,7.30
2019-02-12T16:47:35.406Z,7.20
2019-02-12T16:50:24.994Z,7.20
2019-02-12T16:53:14.830Z,7.20
2019-02-12T16:56:08.384Z,7.20
2019-02-12T16:59:03.405Z,7.10
2019-02-12T17:01:49.335Z,7.10
2019-02-12T17:04:38.497Z,7.10
2019-02-12T17:07:27.470Z,7.10
2019-02-12T17:10:16.998Z,7.10
2019-02-12T17:13:06.131Z,7.20
2019-02-12T17:15:54.928Z,7.20
2019-02-12T17:18:44.242Z,7.20
2019-02-12T17:21:33.344Z,7.30
2019-02-12T17:24:22.702Z,7.20
2019-02-12T17:27:11.993Z,7.30
2019-02-12T17:30:01.544Z,7.40
2019-02-12T17:32:50.998Z,7.40
2019-02-12T17:35:40.142Z,7.40
2019-02-12T17:38:30.733Z,7.40
2019-02-12T17:41:20.405Z,7.40
2019-02-12T17:44:09.324Z,7.40
2019-02-12T17:46:43.118Z,7.40
2019-02-12T17:49:31.689Z,7.30
2019-02-12T17:52:21.635Z,7.30
2019-02-12T17:55:10.991Z,7.30
2019-02-12T17:58:00.584Z,7.30
2019-02-12T18:00:50.810Z,7.20
2019-02-12T18:03:40.140Z,7.30
2019-02-12T18:06:29.649Z,7.30
2019-02-12T18:09:18.948Z,7.30
2019-02-12T18:12:08.551Z,7.40
2019-02-12T18:14:59.583Z,7.40
2019-02-12T18:17:48.649Z,7.40
2019-02-12T18:20:37.628Z,7.30
2019-02-12T18:23:26.949Z,7.40
2019-02-12T18:26:16.649Z,7.30
2019-02-12T18:29:06.205Z,7.30
2019-02-12T18:31:55.322Z,7.20
2019-02-12T18:34:46.684Z,7.20
2019-02-12T18:37:35.962Z,7.10
2019-02-12T18:40:25.616Z,7.10
2019-02-12T18:43:15.322Z,7.10
2019-02-12T18:46:04.822Z,7.00
2019-02-12T18:48:43.971Z,7.00
2019-02-12T18:51:33.600Z,7.00
2019-02-12T18:54:23.488Z,7.00
2019-02-12T18:57:12.892Z,7.00
2019-02-12T19:00:01.526Z,7.00
2019-02-12T19:02:50.858Z,6.90
2019-02-12T19:05:40.505Z,6.90
2019-02-12T19:08:30.947Z,6.90
2019-02-12T19:11:19.950Z,6.80
2019-02-12T19:14:09.564Z,6.80
2019-02-12T19:17:03.765Z,6.70
2019-02-12T19:19:57.134Z,6.70
2019-02-12T19:22:46.971Z,6.60
2019-02-12T19:25:37.116Z,6.50
2019-02-12T19:28:25.910Z,6.60
2019-02-12T19:31:15.204Z,6.50
2019-02-12T19:34:05.131Z,6.50
2019-02-12T19:36:55.097Z,6.50
2019-02-12T19:39:44.155Z,6.50
2019-02-12T19:42:34.154Z,6.40
2019-02-12T19:45:23.647Z,6.40
2019-02-12T19:48:01.280Z,6.40
2019-02-12T19:50:50.224Z,6.40
2019-02-12T19:53:41.171Z,6.40
2019-02-12T19:56:30.460Z,6.40
2019-02-12T19:59:21.773Z,6.40
2019-02-12T20:02:12.599Z,6.40
2019-02-12T20:05:01.968Z,6.30
2019-02-12T20:07:51.329Z,6.30
2019-02-12T20:10:41.079Z,6.30
2019-02-12T20:13:30.594Z,6.30
2019-02-12T20:16:20.419Z,6.30
2019-02-12T20:19:10.305Z,6.30
2019-02-12T20:22:00.247Z,6.30
2019-02-12T20:24:49.025Z,6.30
2019-02-12T20:27:37.837Z,6.30
2019-02-12T20:30:27.588Z,6.30
2019-02-12T20:33:16.642Z,6.20
2019-02-12T20:36:06.082Z,6.20
2019-02-12T20:38:55.816Z,6.20
2019-02-12T20:41:45.669Z,6.20
2019-02-12T20:44:35.163Z,6.20
2019-02-12T20:47:25.033Z,6.20
2019-02-12T20:50:14.917Z,6.10
2019-02-12T20:53:04.388Z,6.10
2019-02-12T20:55:54.286Z,6.10
2019-02-12T20:58:44.289Z,6.10
2019-02-12T21:01:34.005Z,6.10
2019-02-12T21:04:23.980Z,6.00
2019-02-12T21:07:14.956Z,6.10
2019-02-12T21:10:05.026Z,6.10
2019-02-12T21:12:54.663Z,6.10
2019-02-12T21:15:44.278Z,6.00
2019-02-12T21:18:33.423Z,6.00
2019-02-12T21:21:23.288Z,6.00
2019-02-12T21:24:12.720Z,6.00
2019-02-12T21:27:02.243Z,6.00
2019-02-12T21:29:51.628Z,5.90
2019-02-12T21:32:40.956Z,5.90
2019-02-12T21:35:29.868Z,5.90
2019-02-12T21:38:20.547Z,5.90
2019-02-12T21:41:11.324Z,5.90
2019-02-12T21:44:00.374Z,5.90
2019-02-12T21:46:50.065Z,5.90
2019-02-12T21:49:38.802Z,5.80
2019-02-12T21:52:27.890Z,5.80
2019-02-12T21:55:17.023Z,5.80
2019-02-12T21:58:06.178Z,5.80
2019-02-12T22:00:55.632Z,5.70
2019-02-12T22:03:45.123Z,5.70
2019-02-12T22:06:36.584Z,5.70
2019-02-12T22:09:10.772Z,5.70
2019-02-12T22:11:59.719Z,5.70
2019-02-12T22:14:48.323Z,5.70
2019-02-12T22:17:37.514Z,5.70
2019-02-12T22:20:28.692Z,5.70
2019-02-12T22:23:18.241Z,5.70
2019-02-12T22:25:52.466Z,5.70
2019-02-12T22:28:41.756Z,5.70
2019-02-12T22:31:31.061Z,5.70
2019-02-12T22:34:20.222Z,5.70
2019-02-12T22:36:58.835Z,5.60
2019-02-12T22:39:48.619Z,5.60
2019-02-12T22:42:37.743Z,5.60
2019-02-12T22:45:27.010Z,5.60
2019-02-12T22:48:16.463Z,5.60
2019-02-12T22:51:05.643Z,5.50
2019-02-12T22:53:54.635Z,5.50
2019-02-12T22:56:43.566Z,5.50
2019-02-12T22:59:32.280Z,5.40
2019-02-12T23:02:21.774Z,5.30
2019-02-12T23:05:10.421Z,5.30
2019-02-12T23:07:59.037Z,5.20
2019-02-12T23:10:48.514Z,5.20
2019-02-12T23:13:37.785Z,5.20
2019-02-12T23:16:27.101Z,5.10
2019-02-12T23:19:16.183Z,5.20
2019-02-12T23:22:05.595Z,5.10
2019-02-12T23:24:54.700Z,5.20
2019-02-12T23:27:44.546Z,5.20
2019-02-12T23:30:33.668Z,5.30
2019-02-12T23:33:23.147Z,5.30
2019-02-12T23:36:12.526Z,5.30
2019-02-12T23:39:01.242Z,5.30
2019-02-12T23:41:50.447Z,5.20
2019-02-12T23:44:39.291Z,5.30
2019-02-12T23:47:28.144Z,5.30
2019-02-12T23:50:17.903Z,5.30
2019-02-12T23:53:07.417Z,5.20
2019-02-12T23:55:56.449Z,5.30
2019-02-12T23:58:46.338Z,5.30
